Carlisle, Arkansas
Current Conditions -  °F | °C
As of 8:35 PM on Sunday 23 Nov 2014 (Local Time) from KSGT Reporting Station
Clear Clear  
Wind Chill: 61°   Ceiling: Unl
Heat Index: 61°   Visibility: 10mi
Dew Point: 57°   Wind: 17mph
Humidity: 88%   Direction: 180°S
Pressure: 29.43"   Gusts: NA
Location:  34.78°N, 91.75°W
Report Text: KSGT 240235Z AUTO 18015KT 10SM CLR 16/14 A2943 RMK AO1
Loading
Personal Weather Stations






























Interactive Weather Map New forecast layout! Learn more

10-Day Weather Forecast

Advertisements
Track Severe Weather on mobile